sensor_id;sensor_type;location;lat;lon;timestamp;pressure;altitude;pressure_sealevel;temperature;humidity
17209;BME280;8720;48.488;9.202;2023-05-03T00:00:41;97773.28;;;13.43;50.97
17209;BME280;8720;48.488;9.202;2023-05-03T00:03:09;97769.00;;;13.39;51.07
17209;BME280;8720;48.488;9.202;2023-05-03T00:05:38;97782.19;;;13.38;51.05
17209;BME280;8720;48.488;9.202;2023-05-03T00:08:07;97767.38;;;13.34;51.09
17209;BME280;8720;48.488;9.202;2023-05-03T00:10:34;97772.69;;;13.31;51.10
17209;BME280;8720;48.488;9.202;2023-05-03T00:13:01;97771.91;;;13.27;51.11
17209;BME280;8720;48.488;9.202;2023-05-03T00:15:29;97772.81;;;13.25;51.14
17209;BME280;8720;48.488;9.202;2023-05-03T00:17:56;97764.16;;;13.21;51.28
17209;BME280;8720;48.488;9.202;2023-05-03T00:20:23;97766.84;;;13.18;51.32
17209;BME280;8720;48.488;9.202;2023-05-03T00:22:51;97768.69;;;13.15;51.35
17209;BME280;8720;48.488;9.202;2023-05-03T00:25:19;97773.13;;;13.13;51.51
17209;BME280;8720;48.488;9.202;2023-05-03T00:27:47;97767.91;;;13.10;51.62
17209;BME280;8720;48.488;9.202;2023-05-03T00:30:14;97767.13;;;13.06;51.66
17209;BME280;8720;48.488;9.202;2023-05-03T00:32:43;97757.53;;;13.04;51.68
17209;BME280;8720;48.488;9.202;2023-05-03T00:35:11;97761.09;;;13.01;51.64
17209;BME280;8720;48.488;9.202;2023-05-03T00:37:38;97762.03;;;12.97;51.79
17209;BME280;8720;48.488;9.202;2023-05-03T00:40:07;97766.50;;;12.94;51.88
17209;BME280;8720;48.488;9.202;2023-05-03T00:42:36;97759.53;;;12.91;51.90
17209;BME280;8720;48.488;9.202;2023-05-03T00:45:05;97764.84;;;12.90;51.82
17209;BME280;8720;48.488;9.202;2023-05-03T00:47:33;97767.47;;;12.88;52.02
17209;BME280;8720;48.488;9.202;2023-05-03T00:50:00;97761.41;;;12.86;51.99
17209;BME280;8720;48.488;9.202;2023-05-03T00:52:28;97764.97;;;12.84;51.95
17209;BME280;8720;48.488;9.202;2023-05-03T00:54:57;97762.38;;;12.80;52.03
17209;BME280;8720;48.488;9.202;2023-05-03T00:57:26;97760.66;;;12.79;52.18
17209;BME280;8720;48.488;9.202;2023-05-03T00:59:56;97764.16;;;12.78;52.12
17209;BME280;8720;48.488;9.202;2023-05-03T01:02:24;97765.09;;;12.77;52.08
17209;BME280;8720;48.488;9.202;2023-05-03T01:04:52;97770.38;;;12.76;52.24
17209;BME280;8720;48.488;9.202;2023-05-03T01:07:29;97768.66;;;12.73;52.38
17209;BME280;8720;48.488;9.202;2023-05-03T01:10:17;97769.63;;;12.69;52.46
17209;BME280;8720;48.488;9.202;2023-05-03T01:13:00;97763.59;;;12.64;52.57
17209;BME280;8720;48.488;9.202;2023-05-03T01:15:45;97772.41;;;12.62;52.60
17209;BME280;8720;48.488;9.202;2023-05-03T01:18:19;97771.53;;;12.61;52.74
17209;BME280;8720;48.488;9.202;2023-05-03T01:20:49;97768.94;;;12.60;52.74
17209;BME280;8720;48.488;9.202;2023-05-03T01:23:30;97763.72;;;12.58;52.75
17209;BME280;8720;48.488;9.202;2023-05-03T01:26:14;97759.41;;;12.56;52.70
17209;BME280;8720;48.488;9.202;2023-05-03T01:28:42;97748.91;;;12.56;52.73
17209;BME280;8720;48.488;9.202;2023-05-03T01:31:11;97753.28;;;12.57;52.62
17209;BME280;8720;48.488;9.202;2023-05-03T01:33:50;97754.19;;;12.54;52.66
17209;BME280;8720;48.488;9.202;2023-05-03T01:36:25;97743.75;;;12.51;52.81
17209;BME280;8720;48.488;9.202;2023-05-03T01:38:59;97748.19;;;12.49;52.87
17209;BME280;8720;48.488;9.202;2023-05-03T01:41:33;97747.34;;;12.46;52.86
17209;BME280;8720;48.488;9.202;2023-05-03T01:44:03;97743.00;;;12.45;52.77
17209;BME280;8720;48.488;9.202;2023-05-03T01:46:30;97747.38;;;12.44;52.73
17209;BME280;8720;48.488;9.202;2023-05-03T01:48:58;97741.28;;;12.42;52.77
17209;BME280;8720;48.488;9.202;2023-05-03T01:51:25;97747.50;;;12.38;52.86
17209;BME280;8720;48.488;9.202;2023-05-03T01:53:52;97749.31;;;12.35;52.89
17209;BME280;8720;48.488;9.202;2023-05-03T01:56:20;97743.31;;;12.30;52.94
17209;BME280;8720;48.488;9.202;2023-05-03T01:58:49;97745.97;;;12.28;52.99
17209;BME280;8720;48.488;9.202;2023-05-03T02:01:16;97736.34;;;12.27;53.09
17209;BME280;8720;48.488;9.202;2023-05-03T02:03:44;97740.72;;;12.27;53.14
17209;BME280;8720;48.488;9.202;2023-05-03T02:06:11;97742.50;;;12.26;53.09
17209;BME280;8720;48.488;9.202;2023-05-03T02:08:38;97740.78;;;12.24;53.12
17209;BME280;8720;48.488;9.202;2023-05-03T02:11:05;97739.97;;;12.22;53.20
17209;BME280;8720;48.488;9.202;2023-05-03T02:13:33;97740.84;;;12.21;53.26
17209;BME280;8720;48.488;9.202;2023-05-03T02:16:02;97741.72;;;12.21;53.32
17209;BME280;8720;48.488;9.202;2023-05-03T02:18:30;97746.97;;;12.21;53.40
17209;BME280;8720;48.488;9.202;2023-05-03T02:20:58;97747.84;;;12.22;53.31
17209;BME280;8720;48.488;9.202;2023-05-03T02:23:25;97740.00;;;12.19;53.17
17209;BME280;8720;48.488;9.202;2023-05-03T02:25:53;97744.44;;;12.17;53.32
17209;BME280;8720;48.488;9.202;2023-05-03T02:28:20;97732.19;;;12.16;53.35
17209;BME280;8720;48.488;9.202;2023-05-03T02:30:47;97743.53;;;12.18;53.31
17209;BME280;8720;48.488;9.202;2023-05-03T02:33:16;97729.53;;;12.17;53.30
17209;BME280;8720;48.488;9.202;2023-05-03T02:35:43;97734.75;;;12.20;53.31
17209;BME280;8720;48.488;9.202;2023-05-03T02:38:11;97733.88;;;12.20;53.37
17209;BME280;8720;48.488;9.202;2023-05-03T02:40:38;97737.38;;;12.20;53.34
17209;BME280;8720;48.488;9.202;2023-05-03T02:43:05;97732.97;;;12.22;53.31
17209;BME280;8720;48.488;9.202;2023-05-03T02:45:34;97731.19;;;12.23;53.43
17209;BME280;8720;48.488;9.202;2023-05-03T02:48:02;97738.19;;;12.24;53.32
17209;BME280;8720;48.488;9.202;2023-05-03T02:50:31;97730.34;;;12.22;53.32
17209;BME280;8720;48.488;9.202;2023-05-03T02:52:59;97740.00;;;12.20;53.35
17209;BME280;8720;48.488;9.202;2023-05-03T02:55:26;97731.28;;;12.18;53.56
17209;BME280;8720;48.488;9.202;2023-05-03T02:57:54;97730.41;;;12.18;53.32
17209;BME280;8720;48.488;9.202;2023-05-03T03:00:21;97733.94;;;12.17;53.39
17209;BME280;8720;48.488;9.202;2023-05-03T03:02:48;97729.63;;;12.14;53.47
17209;BME280;8720;48.488;9.202;2023-05-03T03:05:16;97735.78;;;12.12;53.34
17209;BME280;8720;48.488;9.202;2023-05-03T03:07:49;97739.31;;;12.09;53.61
17209;BME280;8720;48.488;9.202;2023-05-03T03:10:17;97737.59;;;12.08;53.42
17209;BME280;8720;48.488;9.202;2023-05-03T03:12:44;97741.09;;;12.07;53.50
17209;BME280;8720;48.488;9.202;2023-05-03T03:15:21;97736.78;;;12.05;53.43
17209;BME280;8720;48.488;9.202;2023-05-03T03:17:49;97739.44;;;12.03;53.46
17209;BME280;8720;48.488;9.202;2023-05-03T03:20:17;97726.38;;;12.00;53.46
17209;BME280;8720;48.488;9.202;2023-05-03T03:22:48;97728.19;;;11.97;53.45
17209;BME280;8720;48.488;9.202;2023-05-03T03:25:15;97733.53;;;11.91;53.49
17209;BME280;8720;48.488;9.202;2023-05-03T03:27:42;97731.03;;;11.84;53.62
17209;BME280;8720;48.488;9.202;2023-05-03T03:30:10;97738.09;;;11.81;53.63
17209;BME280;8720;48.488;9.202;2023-05-03T03:32:48;97757.38;;;11.77;53.64
17209;BME280;8720;48.488;9.202;2023-05-03T03:35:24;97736.47;;;11.74;53.63
17209;BME280;8720;48.488;9.202;2023-05-03T03:37:53;97742.59;;;11.73;53.78
17209;BME280;8720;48.488;9.202;2023-05-03T03:40:22;97738.25;;;11.70;53.69
17209;BME280;8720;48.488;9.202;2023-05-03T03:42:52;97737.44;;;11.68;53.76
17209;BME280;8720;48.488;9.202;2023-05-03T03:45:19;97738.31;;;11.67;53.70
17209;BME280;8720;48.488;9.202;2023-05-03T03:47:47;97735.72;;;11.63;53.76
17209;BME280;8720;48.488;9.202;2023-05-03T03:50:15;97735.78;;;11.60;53.90
17209;BME280;8720;48.488;9.202;2023-05-03T03:52:42;97733.22;;;11.58;53.83
17209;BME280;8720;48.488;9.202;2023-05-03T03:55:11;97745.44;;;11.58;54.06
17209;BME280;8720;48.488;9.202;2023-05-03T03:57:39;97732.47;;;11.50;53.83
17209;BME280;8720;48.488;9.202;2023-05-03T04:00:08;97748.09;;;11.56;53.92
17209;BME280;8720;48.488;9.202;2023-05-03T04:02:44;97750.78;;;11.52;53.90
17209;BME280;8720;48.488;9.202;2023-05-03T04:05:16;97749.06;;;11.49;53.95
17209;BME280;8720;48.488;9.202;2023-05-03T04:07:44;97756.06;;;11.49;54.05
17209;BME280;8720;48.488;9.202;2023-05-03T04:10:15;97749.09;;;11.48;54.10
17209;BME280;8720;48.488;9.202;2023-05-03T04:12:43;97755.16;;;11.50;54.28
17209;BME280;8720;48.488;9.202;2023-05-03T04:15:13;97760.38;;;11.53;54.20
17209;BME280;8720;48.488;9.202;2023-05-03T04:17:42;97762.91;;;11.57;54.30
17209;BME280;8720;48.488;9.202;2023-05-03T04:20:12;97770.63;;;11.65;54.24
17209;BME280;8720;48.488;9.202;2023-05-03T04:22:42;97774.09;;;11.70;54.40
17209;BME280;8720;48.488;9.202;2023-05-03T04:25:12;97775.72;;;11.77;54.38
17209;BME280;8720;48.488;9.202;2023-05-03T04:27:43;97772.16;;;11.81;54.55
17209;BME280;8720;48.488;9.202;2023-05-03T04:30:13;97777.28;;;11.88;54.51
17209;BME280;8720;48.488;9.202;2023-05-03T04:32:43;97778.88;;;11.97;54.68
17209;BME280;8720;48.488;9.202;2023-05-03T04:35:11;97771.75;;;12.05;54.57
17209;BME280;8720;48.488;9.202;2023-05-03T04:37:43;97776.00;;;12.12;54.66
17209;BME280;8720;48.488;9.202;2023-05-03T04:40:14;97781.97;;;12.20;54.70
17209;BME280;8720;48.488;9.202;2023-05-03T04:42:49;97792.91;;;12.43;55.34
17209;BME280;8720;48.488;9.202;2023-05-03T04:45:17;97788.41;;;12.48;54.82
17209;BME280;8720;48.488;9.202;2023-05-03T04:47:46;97789.19;;;12.55;54.88
17209;BME280;8720;48.488;9.202;2023-05-03T04:50:14;97809.19;;;12.60;54.68
17209;BME280;8720;48.488;9.202;2023-05-03T04:52:45;97803.81;;;12.66;54.87
17209;BME280;8720;48.488;9.202;2023-05-03T04:55:13;97801.97;;;12.71;54.70
17209;BME280;8720;48.488;9.202;2023-05-03T04:57:41;97808.84;;;12.77;54.59
17209;BME280;8720;48.488;9.202;2023-05-03T05:00:13;97811.34;;;12.83;54.43
17209;BME280;8720;48.488;9.202;2023-05-03T05:02:45;97807.72;;;12.89;54.45
17209;BME280;8720;48.488;9.202;2023-05-03T05:05:13;97806.72;;;12.96;54.49
17209;BME280;8720;48.488;9.202;2023-05-03T05:07:41;97800.44;;;13.03;54.48
17209;BME280;8720;48.488;9.202;2023-05-03T05:10:11;97799.44;;;13.10;54.53
17209;BME280;8720;48.488;9.202;2023-05-03T05:12:40;97794.00;;;13.17;54.41
17209;BME280;8720;48.488;9.202;2023-05-03T05:15:09;97801.72;;;13.26;54.37
17209;BME280;8720;48.488;9.202;2023-05-03T05:17:38;97798.03;;;13.33;54.21
17209;BME280;8720;48.488;9.202;2023-05-03T05:20:07;97806.66;;;13.40;54.35
17209;BME280;8720;48.488;9.202;2023-05-03T05:22:39;97802.97;;;13.47;54.23
17209;BME280;8720;48.488;9.202;2023-05-03T05:25:08;97805.47;;;13.53;54.17
17209;BME280;8720;48.488;9.202;2023-05-03T05:27:36;97807.09;;;13.58;54.13
17209;BME280;8720;48.488;9.202;2023-05-03T05:30:06;97819.19;;;13.67;54.25
17209;BME280;8720;48.488;9.202;2023-05-03T05:32:34;97812.88;;;13.74;54.30
17209;BME280;8720;48.488;9.202;2023-05-03T05:35:04;97815.34;;;13.80;54.05
17209;BME280;8720;48.488;9.202;2023-05-03T05:37:31;97813.41;;;13.88;54.17
17209;BME280;8720;48.488;9.202;2023-05-03T05:40:02;97814.97;;;13.95;53.95
17209;BME280;8720;48.488;9.202;2023-05-03T05:42:36;97817.47;;;14.01;54.13
17209;BME280;8720;48.488;9.202;2023-05-03T05:45:05;97816.38;;;14.08;53.73
17209;BME280;8720;48.488;9.202;2023-05-03T05:47:33;97825.84;;;14.17;53.81
17209;BME280;8720;48.488;9.202;2023-05-03T05:50:04;97814.28;;;14.22;53.77
17209;BME280;8720;48.488;9.202;2023-05-03T05:52:32;97820.25;;;14.30;53.89
17209;BME280;8720;48.488;9.202;2023-05-03T05:55:00;97821.75;;;14.39;53.70
17209;BME280;8720;48.488;9.202;2023-05-03T05:57:27;97816.34;;;14.45;53.68
17209;BME280;8720;48.488;9.202;2023-05-03T05:59:55;97811.78;;;14.51;53.45
17209;BME280;8720;48.488;9.202;2023-05-03T06:02:22;97813.34;;;14.58;53.58
17209;BME280;8720;48.488;9.202;2023-05-03T06:04:50;97809.63;;;14.66;53.42
17209;BME280;8720;48.488;9.202;2023-05-03T06:07:19;97806.81;;;14.72;53.42
17209;BME280;8720;48.488;9.202;2023-05-03T06:09:46;97806.81;;;14.72;53.32
17209;BME280;8720;48.488;9.202;2023-05-03T06:12:14;97804.19;;;14.72;53.37
17209;BME280;8720;48.488;9.202;2023-05-03T06:14:42;97807.66;;;14.74;53.66
17209;BME280;8720;48.488;9.202;2023-05-03T06:17:09;97811.97;;;14.76;53.64
17209;BME280;8720;48.488;9.202;2023-05-03T06:19:37;97801.22;;;14.84;53.60
17209;BME280;8720;48.488;9.202;2023-05-03T06:22:04;97796.59;;;14.92;53.43
17209;BME280;8720;48.488;9.202;2023-05-03T06:24:35;97798.97;;;15.01;53.62
17209;BME280;8720;48.488;9.202;2023-05-03T06:27:02;97791.72;;;15.09;53.52
17209;BME280;8720;48.488;9.202;2023-05-03T06:29:31;97791.41;;;15.19;53.33
17209;BME280;8720;48.488;9.202;2023-05-03T06:31:58;97791.06;;;15.30;53.38
17209;BME280;8720;48.488;9.202;2023-05-03T06:34:26;97796.88;;;15.42;52.96
17209;BME280;8720;48.488;9.202;2023-05-03T06:36:54;97792.06;;;15.55;53.00
17209;BME280;8720;48.488;9.202;2023-05-03T06:39:22;97791.69;;;15.67;53.05
17209;BME280;8720;48.488;9.202;2023-05-03T06:41:51;97792.16;;;15.80;52.80
17209;BME280;8720;48.488;9.202;2023-05-03T06:44:19;97787.41;;;15.91;52.79
17209;BME280;8720;48.488;9.202;2023-05-03T06:46:46;97800.19;;;16.03;52.53
17209;BME280;8720;48.488;9.202;2023-05-03T06:49:14;97789.38;;;16.10;52.46
17209;BME280;8720;48.488;9.202;2023-05-03T06:51:41;97794.34;;;16.19;52.50
17209;BME280;8720;48.488;9.202;2023-05-03T06:54:09;97793.91;;;16.31;52.32
17209;BME280;8720;48.488;9.202;2023-05-03T06:56:36;97792.47;;;16.48;52.36
17209;BME280;8720;48.488;9.202;2023-05-03T06:59:06;97784.56;;;16.72;52.20
17209;BME280;8720;48.488;9.202;2023-05-03T07:01:34;97792.88;;;17.09;52.01
17209;BME280;8720;48.488;9.202;2023-05-03T07:04:01;97792.28;;;17.48;51.55
17209;BME280;8720;48.488;9.202;2023-05-03T07:06:28;97787.06;;;17.69;50.99
17209;BME280;8720;48.488;9.202;2023-05-03T07:08:56;97791.72;;;17.84;50.39
17209;BME280;8720;48.488;9.202;2023-05-03T07:11:23;97792.34;;;17.91;50.12
17209;BME280;8720;48.488;9.202;2023-05-03T07:13:51;97793.94;;;17.95;50.24
17209;BME280;8720;48.488;9.202;2023-05-03T07:16:20;97793.81;;;17.98;49.82
17209;BME280;8720;48.488;9.202;2023-05-03T07:18:50;97792.03;;;17.98;49.57
17209;BME280;8720;48.488;9.202;2023-05-03T07:21:17;97785.06;;;17.96;49.66
17209;BME280;8720;48.488;9.202;2023-05-03T07:23:44;97783.16;;;17.99;49.71
17209;BME280;8720;48.488;9.202;2023-05-03T07:26:12;97776.81;;;18.03;49.43
17209;BME280;8720;48.488;9.202;2023-05-03T07:28:39;97772.00;;;18.13;49.64
17209;BME280;8720;48.488;9.202;2023-05-03T07:31:06;97769.78;;;18.24;49.27
17209;BME280;8720;48.488;9.202;2023-05-03T07:33:35;97767.53;;;18.35;49.66
17209;BME280;8720;48.488;9.202;2023-05-03T07:36:03;97775.44;;;18.57;49.48
17209;BME280;8720;48.488;9.202;2023-05-03T07:38:31;97772.59;;;19.00;49.62
17209;BME280;8720;48.488;9.202;2023-05-03T07:40:58;97777.41;;;19.49;49.31
17209;BME280;8720;48.488;9.202;2023-05-03T07:43:26;97759.03;;;19.99;49.02
17209;BME280;8720;48.488;9.202;2023-05-03T07:45:54;97748.91;;;20.41;48.11
17209;BME280;8720;48.488;9.202;2023-05-03T07:48:21;97762.31;;;20.90;47.60
17209;BME280;8720;48.488;9.202;2023-05-03T07:50:50;97756.91;;;21.24;46.82
17209;BME280;8720;48.488;9.202;2023-05-03T07:53:17;97765.53;;;21.60;46.03
17209;BME280;8720;48.488;9.202;2023-05-03T07:55:44;97758.44;;;21.92;45.70
17209;BME280;8720;48.488;9.202;2023-05-03T07:58:11;97754.06;;;22.20;44.66
17209;BME280;8720;48.488;9.202;2023-05-03T08:00:39;97759.94;;;22.41;44.16
17209;BME280;8720;48.488;9.202;2023-05-03T08:03:06;97760.41;;;22.63;43.78
17209;BME280;8720;48.488;9.202;2023-05-03T08:05:34;97757.22;;;22.86;43.50
17209;BME280;8720;48.488;9.202;2023-05-03T08:08:03;97754.16;;;23.06;43.03
17209;BME280;8720;48.488;9.202;2023-05-03T08:10:30;97757.59;;;23.22;43.33
17209;BME280;8720;48.488;9.202;2023-05-03T08:13:03;97754.66;;;23.41;42.57
17209;BME280;8720;48.488;9.202;2023-05-03T08:15:31;97753.44;;;23.47;42.41
17209;BME280;8720;48.488;9.202;2023-05-03T08:17:59;97748.09;;;23.47;42.29
17209;BME280;8720;48.488;9.202;2023-05-03T08:20:26;97756.44;;;23.55;42.06
17209;BME280;8720;48.488;9.202;2023-05-03T08:22:54;97753.31;;;23.62;41.63
17209;BME280;8720;48.488;9.202;2023-05-03T08:25:24;97761.22;;;23.64;41.49
17209;BME280;8720;48.488;9.202;2023-05-03T08:27:53;97746.91;;;23.65;41.66
17209;BME280;8720;48.488;9.202;2023-05-03T08:30:20;97757.09;;;23.72;41.45
17209;BME280;8720;48.488;9.202;2023-05-03T08:32:47;97758.44;;;23.65;41.38
17209;BME280;8720;48.488;9.202;2023-05-03T08:35:16;97758.94;;;23.58;40.92
17209;BME280;8720;48.488;9.202;2023-05-03T08:37:44;97753.72;;;23.42;41.34
17209;BME280;8720;48.488;9.202;2023-05-03T08:40:12;97759.66;;;23.33;41.56
17209;BME280;8720;48.488;9.202;2023-05-03T08:42:44;97752.53;;;23.18;41.49
17209;BME280;8720;48.488;9.202;2023-05-03T08:45:13;97749.31;;;22.99;41.74
17209;BME280;8720;48.488;9.202;2023-05-03T08:47:41;97755.41;;;22.87;42.15
17209;BME280;8720;48.488;9.202;2023-05-03T08:50:11;97754.72;;;22.69;41.83
17209;BME280;8720;48.488;9.202;2023-05-03T08:52:40;97756.81;;;22.48;41.94
17209;BME280;8720;48.488;9.202;2023-05-03T08:55:09;97749.91;;;22.30;42.80
17209;BME280;8720;48.488;9.202;2023-05-03T08:57:37;97752.78;;;22.12;42.28
17209;BME280;8720;48.488;9.202;2023-05-03T09:00:07;97752.91;;;21.95;43.10
17209;BME280;8720;48.488;9.202;2023-05-03T09:02:39;97758.88;;;21.84;42.85
17209;BME280;8720;48.488;9.202;2023-05-03T09:05:36;97749.81;;;21.71;43.56
17209;BME280;8720;48.488;9.202;2023-05-03T09:08:09;97746.63;;;21.64;43.34
17209;BME280;8720;48.488;9.202;2023-05-03T09:10:39;97750.41;;;21.60;43.28
17209;BME280;8720;48.488;9.202;2023-05-03T09:13:07;97754.38;;;21.53;43.80
17209;BME280;8720;48.488;9.202;2023-05-03T09:15:36;97752.81;;;21.49;43.72
17209;BME280;8720;48.488;9.202;2023-05-03T09:18:12;97753.94;;;21.45;43.66
17209;BME280;8720;48.488;9.202;2023-05-03T09:20:41;97748.84;;;21.41;43.88
17209;BME280;8720;48.488;9.202;2023-05-03T09:23:17;97751.78;;;21.36;43.97
17209;BME280;8720;48.488;9.202;2023-05-03T09:25:48;97752.03;;;21.32;44.20
17209;BME280;8720;48.488;9.202;2023-05-03T09:28:18;97748.78;;;21.27;44.13
17209;BME280;8720;48.488;9.202;2023-05-03T09:30:48;97754.16;;;21.25;44.15
17209;BME280;8720;48.488;9.202;2023-05-03T09:33:16;97747.72;;;21.29;44.33
17209;BME280;8720;48.488;9.202;2023-05-03T09:36:01;97748.34;;;21.34;44.67
17209;BME280;8720;48.488;9.202;2023-05-03T09:38:32;97733.59;;;21.29;44.32
17209;BME280;8720;48.488;9.202;2023-05-03T09:40:59;97738.50;;;21.36;44.14
17209;BME280;8720;48.488;9.202;2023-05-03T09:43:27;97727.91;;;21.35;44.51
17209;BME280;8720;48.488;9.202;2023-05-03T09:46:08;97728.25;;;21.44;44.23
17209;BME280;8720;48.488;9.202;2023-05-03T09:48:36;97726.97;;;21.51;44.07
17209;BME280;8720;48.488;9.202;2023-05-03T09:51:05;97722.34;;;21.55;44.00
17209;BME280;8720;48.488;9.202;2023-05-03T09:53:34;97725.00;;;21.55;44.26
17209;BME280;8720;48.488;9.202;2023-05-03T09:56:04;97717.78;;;21.57;44.04
17209;BME280;8720;48.488;9.202;2023-05-03T09:58:35;97710.38;;;21.46;43.75
17209;BME280;8720;48.488;9.202;2023-05-03T10:01:04;97722.09;;;21.44;44.21
17209;BME280;8720;48.488;9.202;2023-05-03T10:03:38;97724.06;;;21.40;44.22
17209;BME280;8720;48.488;9.202;2023-05-03T10:06:19;97717.78;;;21.41;44.32
17209;BME280;8720;48.488;9.202;2023-05-03T10:08:52;97721.41;;;21.40;43.87
17209;BME280;8720;48.488;9.202;2023-05-03T10:11:25;97718.78;;;21.39;43.60
17209;BME280;8720;48.488;9.202;2023-05-03T10:13:53;97710.91;;;21.37;43.77
17209;BME280;8720;48.488;9.202;2023-05-03T10:16:29;97705.59;;;21.37;44.45
17209;BME280;8720;48.488;9.202;2023-05-03T10:19:06;97716.13;;;21.39;44.23
17209;BME280;8720;48.488;9.202;2023-05-03T10:21:54;97709.19;;;21.36;44.13
17209;BME280;8720;48.488;9.202;2023-05-03T10:24:22;97707.31;;;21.38;44.10
17209;BME280;8720;48.488;9.202;2023-05-03T10:26:50;97697.59;;;21.37;44.10
17209;BME280;8720;48.488;9.202;2023-05-03T10:29:46;97694.94;;;21.37;44.33
17209;BME280;8720;48.488;9.202;2023-05-03T10:32:33;97700.94;;;21.41;43.87
17209;BME280;8720;48.488;9.202;2023-05-03T10:35:03;97688.59;;;21.40;43.85
17209;BME280;8720;48.488;9.202;2023-05-03T10:37:32;97695.47;;;21.44;43.49
17209;BME280;8720;48.488;9.202;2023-05-03T10:40:09;97698.19;;;21.42;43.63
17209;BME280;8720;48.488;9.202;2023-05-03T10:42:43;97687.63;;;21.41;43.60
17209;BME280;8720;48.488;9.202;2023-05-03T10:45:24;97692.13;;;21.40;43.55
17209;BME280;8720;48.488;9.202;2023-05-03T10:48:17;97694.06;;;21.37;43.45
17209;BME280;8720;48.488;9.202;2023-05-03T10:50:48;97682.41;;;21.39;43.78
17209;BME280;8720;48.488;9.202;2023-05-03T10:53:37;97689.50;;;21.39;43.71
17209;BME280;8720;48.488;9.202;2023-05-03T10:56:07;97678.81;;;21.40;43.71
17209;BME280;8720;48.488;9.202;2023-05-03T10:58:37;97683.75;;;21.46;43.31
17209;BME280;8720;48.488;9.202;2023-05-03T11:01:06;97674.75;;;21.49;43.43
17209;BME280;8720;48.488;9.202;2023-05-03T11:03:46;97670.97;;;21.53;42.92
17209;BME280;8720;48.488;9.202;2023-05-03T11:06:30;97666.22;;;21.58;42.78
17209;BME280;8720;48.488;9.202;2023-05-03T11:08:59;97681.94;;;21.62;42.93
17209;BME280;8720;48.488;9.202;2023-05-03T11:11:26;97671.72;;;21.70;42.18
17209;BME280;8720;48.488;9.202;2023-05-03T11:13:54;97665.84;;;21.80;42.06
17209;BME280;8720;48.488;9.202;2023-05-03T11:16:21;97671.53;;;21.89;42.55
17209;BME280;8720;48.488;9.202;2023-05-03T11:18:50;97663.94;;;21.97;41.76
17209;BME280;8720;48.488;9.202;2023-05-03T11:21:19;97667.13;;;22.04;41.46
17209;BME280;8720;48.488;9.202;2023-05-03T11:23:46;97673.22;;;22.06;41.90
17209;BME280;8720;48.488;9.202;2023-05-03T11:26:14;97671.22;;;22.09;41.52
17209;BME280;8720;48.488;9.202;2023-05-03T11:28:42;97663.69;;;22.16;41.71
17209;BME280;8720;48.488;9.202;2023-05-03T11:31:11;97650.78;;;22.24;41.58
17209;BME280;8720;48.488;9.202;2023-05-03T11:33:40;97643.94;;;22.34;41.57
17209;BME280;8720;48.488;9.202;2023-05-03T11:36:08;97643.69;;;22.38;41.48
17209;BME280;8720;48.488;9.202;2023-05-03T11:38:38;97640.53;;;22.46;41.25
17209;BME280;8720;48.488;9.202;2023-05-03T11:41:13;97635.09;;;22.47;40.98
17209;BME280;8720;48.488;9.202;2023-05-03T11:43:42;97643.19;;;22.46;40.84
17209;BME280;8720;48.488;9.202;2023-05-03T11:46:12;97630.53;;;22.49;40.93
17209;BME280;8720;48.488;9.202;2023-05-03T11:48:42;97623.97;;;22.55;40.72
17209;BME280;8720;48.488;9.202;2023-05-03T11:51:11;97630.47;;;22.65;40.43
17209;BME280;8720;48.488;9.202;2023-05-03T11:53:40;97626.66;;;22.69;40.75
17209;BME280;8720;48.488;9.202;2023-05-03T11:56:11;97633.31;;;22.76;40.28
17209;BME280;8720;48.488;9.202;2023-05-03T11:58:50;97625.31;;;22.76;40.03
17209;BME280;8720;48.488;9.202;2023-05-03T12:01:19;97621.13;;;22.72;40.11
17209;BME280;8720;48.488;9.202;2023-05-03T12:03:52;97622.19;;;22.70;40.19
17209;BME280;8720;48.488;9.202;2023-05-03T12:06:21;97623.22;;;22.67;40.22
17209;BME280;8720;48.488;9.202;2023-05-03T12:08:49;97620.09;;;22.75;40.30
17209;BME280;8720;48.488;9.202;2023-05-03T12:11:16;97626.75;;;22.82;40.15
17209;BME280;8720;48.488;9.202;2023-05-03T12:13:44;97604.34;;;22.84;39.57
17209;BME280;8720;48.488;9.202;2023-05-03T12:16:11;97611.22;;;22.88;39.90
17209;BME280;8720;48.488;9.202;2023-05-03T12:18:46;97609.09;;;22.93;39.67
17209;BME280;8720;48.488;9.202;2023-05-03T12:21:15;97598.78;;;23.01;39.52
17209;BME280;8720;48.488;9.202;2023-05-03T12:23:45;97596.78;;;23.05;39.42
17209;BME280;8720;48.488;9.202;2023-05-03T12:26:15;97603.63;;;23.09;38.53
17209;BME280;8720;48.488;9.202;2023-05-03T12:28:44;97605.16;;;23.13;39.07
17209;BME280;8720;48.488;9.202;2023-05-03T12:31:12;97602.94;;;23.19;37.82
17209;BME280;8720;48.488;9.202;2023-05-03T12:33:39;97600.06;;;23.22;37.88
17209;BME280;8720;48.488;9.202;2023-05-03T12:36:07;97592.06;;;23.22;37.71
17209;BME280;8720;48.488;9.202;2023-05-03T12:38:35;97595.31;;;23.27;37.53
17209;BME280;8720;48.488;9.202;2023-05-03T12:41:04;97589.56;;;23.33;37.62
17209;BME280;8720;48.488;9.202;2023-05-03T12:43:31;97597.50;;;23.35;37.12
17209;BME280;8720;48.488;9.202;2023-05-03T12:45:58;97596.75;;;23.33;37.51
17209;BME280;8720;48.488;9.202;2023-05-03T12:48:28;97602.25;;;23.30;37.02
17209;BME280;8720;48.488;9.202;2023-05-03T12:50:56;97597.97;;;23.27;37.48
17209;BME280;8720;48.488;9.202;2023-05-03T12:53:24;97591.56;;;23.30;36.66
17209;BME280;8720;48.488;9.202;2023-05-03T12:55:52;97598.25;;;23.37;37.11
17209;BME280;8720;48.488;9.202;2023-05-03T12:58:21;97584.41;;;23.44;36.67
17209;BME280;8720;48.488;9.202;2023-05-03T13:00:48;97588.16;;;23.55;36.27
17209;BME280;8720;48.488;9.202;2023-05-03T13:03:17;97591.94;;;23.65;35.82
17209;BME280;8720;48.488;9.202;2023-05-03T13:05:44;97586.19;;;23.71;36.47
17209;BME280;8720;48.488;9.202;2023-05-03T13:08:11;97575.94;;;23.77;35.51
17209;BME280;8720;48.488;9.202;2023-05-03T13:10:39;97575.84;;;23.79;35.01
17209;BME280;8720;48.488;9.202;2023-05-03T13:13:06;97577.75;;;23.77;34.96
17209;BME280;8720;48.488;9.202;2023-05-03T13:15:36;97566.72;;;23.69;34.74
17209;BME280;8720;48.488;9.202;2023-05-03T13:18:05;97568.44;;;23.70;35.03
17209;BME280;8720;48.488;9.202;2023-05-03T13:20:34;97560.09;;;23.74;34.82
17209;BME280;8720;48.488;9.202;2023-05-03T13:23:02;97558.06;;;23.78;34.13